sensor_id;sensor_type;location;lat;lon;timestamp;temperature;humidity
7016;DHT22;3548;48.402;9.990;2022-11-20T00:00:55;5.60;99.90
7016;DHT22;3548;48.402;9.990;2022-11-20T00:03:21;5.60;99.90
7016;DHT22;3548;48.402;9.990;2022-11-20T00:05:47;5.50;99.90
7016;DHT22;3548;48.402;9.990;2022-11-20T00:08:12;5.50;99.90
7016;DHT22;3548;48.402;9.990;2022-11-20T00:10:41;5.50;99.90
7016;DHT22;3548;48.402;9.990;2022-11-20T00:13:07;5.50;99.90
7016;DHT22;3548;48.402;9.990;2022-11-20T00:15:33;5.50;99.90
7016;DHT22;3548;48.402;9.990;2022-11-20T00:17:59;5.50;99.90
7016;DHT22;3548;48.402;9.990;2022-11-20T00:20:24;5.40;99.90
7016;DHT22;3548;48.402;9.990;2022-11-20T00:22:50;5.40;99.90
7016;DHT22;3548;48.402;9.990;2022-11-20T00:25:16;5.40;99.90
7016;DHT22;3548;48.402;9.990;2022-11-20T00:27:42;5.40;99.90
7016;DHT22;3548;48.402;9.990;2022-11-20T00:30:08;5.50;99.90
7016;DHT22;3548;48.402;9.990;2022-11-20T00:32:34;5.40;99.90
7016;DHT22;3548;48.402;9.990;2022-11-20T00:34:59;5.40;99.90
7016;DHT22;3548;48.402;9.990;2022-11-20T00:37:25;5.30;99.90
7016;DHT22;3548;48.402;9.990;2022-11-20T00:39:51;5.30;99.90
7016;DHT22;3548;48.402;9.990;2022-11-20T00:42:16;5.20;99.90
7016;DHT22;3548;48.402;9.990;2022-11-20T00:44:42;5.10;99.90
7016;DHT22;3548;48.402;9.990;2022-11-20T00:47:07;5.00;99.90
7016;DHT22;3548;48.402;9.990;2022-11-20T00:49:33;4.90;99.90
7016;DHT22;3548;48.402;9.990;2022-11-20T00:51:58;4.80;99.90
7016;DHT22;3548;48.402;9.990;2022-11-20T00:54:24;4.70;99.90
7016;DHT22;3548;48.402;9.990;2022-11-20T00:56:49;4.70;99.90
7016;DHT22;3548;48.402;9.990;2022-11-20T00:59:15;4.60;99.90
7016;DHT22;3548;48.402;9.990;2022-11-20T01:01:40;4.60;99.90
7016;DHT22;3548;48.402;9.990;2022-11-20T01:04:06;4.50;99.90
7016;DHT22;3548;48.402;9.990;2022-11-20T01:06:36;4.40;99.90
7016;DHT22;3548;48.402;9.990;2022-11-20T01:09:09;4.40;99.90
7016;DHT22;3548;48.402;9.990;2022-11-20T01:11:36;4.40;99.90
7016;DHT22;3548;48.402;9.990;2022-11-20T01:14:05;4.40;99.90
7016;DHT22;3548;48.402;9.990;2022-11-20T01:16:40;4.30;99.90
7016;DHT22;3548;48.402;9.990;2022-11-20T01:19:09;4.30;99.90
7016;DHT22;3548;48.402;9.990;2022-11-20T01:21:37;4.30;99.90
7016;DHT22;3548;48.402;9.990;2022-11-20T01:24:04;4.20;99.90
7016;DHT22;3548;48.402;9.990;2022-11-20T01:26:32;4.20;99.90
7016;DHT22;3548;48.402;9.990;2022-11-20T01:28:59;4.20;99.90
7016;DHT22;3548;48.402;9.990;2022-11-20T01:31:31;4.10;99.90
7016;DHT22;3548;48.402;9.990;2022-11-20T01:33:59;4.10;99.90
7016;DHT22;3548;48.402;9.990;2022-11-20T01:36:27;4.10;99.90
7016;DHT22;3548;48.402;9.990;2022-11-20T01:38:54;4.00;99.90
7016;DHT22;3548;48.402;9.990;2022-11-20T01:41:21;4.00;99.90
7016;DHT22;3548;48.402;9.990;2022-11-20T01:44:05;4.00;99.90
7016;DHT22;3548;48.402;9.990;2022-11-20T01:46:36;4.00;99.90
7016;DHT22;3548;48.402;9.990;2022-11-20T01:49:03;4.00;99.90
7016;DHT22;3548;48.402;9.990;2022-11-20T01:51:43;4.00;99.90
7016;DHT22;3548;48.402;9.990;2022-11-20T01:54:14;4.00;99.90
7016;DHT22;3548;48.402;9.990;2022-11-20T01:56:44;4.00;99.90
7016;DHT22;3548;48.402;9.990;2022-11-20T01:59:11;4.00;99.90
7016;DHT22;3548;48.402;9.990;2022-11-20T02:01:38;3.90;99.90
7016;DHT22;3548;48.402;9.990;2022-11-20T02:04:04;3.90;99.90
7016;DHT22;3548;48.402;9.990;2022-11-20T02:06:45;3.90;99.90
7016;DHT22;3548;48.402;9.990;2022-11-20T02:09:14;3.90;99.90
7016;DHT22;3548;48.402;9.990;2022-11-20T02:11:40;3.90;99.90
7016;DHT22;3548;48.402;9.990;2022-11-20T02:14:06;3.90;99.90
7016;DHT22;3548;48.402;9.990;2022-11-20T02:16:36;3.90;99.90
7016;DHT22;3548;48.402;9.990;2022-11-20T02:19:04;3.90;99.90
7016;DHT22;3548;48.402;9.990;2022-11-20T02:26:55;3.80;99.90
7016;DHT22;3548;48.402;9.990;2022-11-20T02:29:28;3.90;99.90
7016;DHT22;3548;48.402;9.990;2022-11-20T02:31:58;3.80;99.90
7016;DHT22;3548;48.402;9.990;2022-11-20T02:34:24;3.90;99.90
7016;DHT22;3548;48.402;9.990;2022-11-20T02:36:51;3.90;99.90
7016;DHT22;3548;48.402;9.990;2022-11-20T02:39:19;3.90;99.90
7016;DHT22;3548;48.402;9.990;2022-11-20T02:41:45;4.00;99.90
7016;DHT22;3548;48.402;9.990;2022-11-20T02:44:11;4.00;99.90
7016;DHT22;3548;48.402;9.990;2022-11-20T02:46:37;4.00;99.90
7016;DHT22;3548;48.402;9.990;2022-11-20T02:49:03;4.10;99.90
7016;DHT22;3548;48.402;9.990;2022-11-20T02:51:29;4.10;99.90
7016;DHT22;3548;48.402;9.990;2022-11-20T02:53:55;4.10;99.90
7016;DHT22;3548;48.402;9.990;2022-11-20T02:56:20;4.10;99.90
7016;DHT22;3548;48.402;9.990;2022-11-20T02:58:46;4.00;99.90
7016;DHT22;3548;48.402;9.990;2022-11-20T03:01:11;3.90;99.90
7016;DHT22;3548;48.402;9.990;2022-11-20T03:03:37;3.90;99.90
7016;DHT22;3548;48.402;9.990;2022-11-20T03:06:03;3.90;99.90
7016;DHT22;3548;48.402;9.990;2022-11-20T03:08:28;3.90;99.90
7016;DHT22;3548;48.402;9.990;2022-11-20T03:10:54;3.80;99.90
7016;DHT22;3548;48.402;9.990;2022-11-20T03:13:19;3.80;99.90
7016;DHT22;3548;48.402;9.990;2022-11-20T03:15:45;3.80;99.90
7016;DHT22;3548;48.402;9.990;2022-11-20T03:18:11;3.80;99.90
7016;DHT22;3548;48.402;9.990;2022-11-20T03:20:36;3.80;99.90
7016;DHT22;3548;48.402;9.990;2022-11-20T03:23:02;3.80;99.90
7016;DHT22;3548;48.402;9.990;2022-11-20T03:25:27;3.80;99.90
7016;DHT22;3548;48.402;9.990;2022-11-20T03:27:54;3.80;99.90
7016;DHT22;3548;48.402;9.990;2022-11-20T03:30:19;3.80;99.90
7016;DHT22;3548;48.402;9.990;2022-11-20T03:32:45;3.80;99.90
7016;DHT22;3548;48.402;9.990;2022-11-20T03:35:11;3.80;99.90
7016;DHT22;3548;48.402;9.990;2022-11-20T03:37:37;3.80;99.90
7016;DHT22;3548;48.402;9.990;2022-11-20T03:40:03;3.80;99.90
7016;DHT22;3548;48.402;9.990;2022-11-20T03:42:28;3.80;99.90
7016;DHT22;3548;48.402;9.990;2022-11-20T03:45:21;3.80;99.90
7016;DHT22;3548;48.402;9.990;2022-11-20T03:47:46;3.80;99.90
7016;DHT22;3548;48.402;9.990;2022-11-20T03:50:13;3.80;99.90
7016;DHT22;3548;48.402;9.990;2022-11-20T03:52:39;3.80;99.90
7016;DHT22;3548;48.402;9.990;2022-11-20T03:55:06;3.70;99.90
7016;DHT22;3548;48.402;9.990;2022-11-20T03:57:32;3.70;99.90
7016;DHT22;3548;48.402;9.990;2022-11-20T03:59:57;3.70;99.90
7016;DHT22;3548;48.402;9.990;2022-11-20T04:02:23;3.70;99.90
7016;DHT22;3548;48.402;9.990;2022-11-20T04:04:48;3.70;99.90
7016;DHT22;3548;48.402;9.990;2022-11-20T04:07:14;3.60;99.90
7016;DHT22;3548;48.402;9.990;2022-11-20T04:09:40;3.60;99.90
7016;DHT22;3548;48.402;9.990;2022-11-20T04:12:05;3.60;99.90
7016;DHT22;3548;48.402;9.990;2022-11-20T04:14:31;3.60;99.90
7016;DHT22;3548;48.402;9.990;2022-11-20T04:16:56;3.60;99.90
7016;DHT22;3548;48.402;9.990;2022-11-20T04:19:22;3.60;99.90
7016;DHT22;3548;48.402;9.990;2022-11-20T04:21:47;3.60;99.90
7016;DHT22;3548;48.402;9.990;2022-11-20T04:24:13;3.60;99.90
7016;DHT22;3548;48.402;9.990;2022-11-20T04:26:39;3.60;99.90
7016;DHT22;3548;48.402;9.990;2022-11-20T04:29:05;3.60;99.90
7016;DHT22;3548;48.402;9.990;2022-11-20T04:31:34;3.60;99.90
7016;DHT22;3548;48.402;9.990;2022-11-20T04:34:01;3.60;99.90
7016;DHT22;3548;48.402;9.990;2022-11-20T04:36:29;3.60;99.90
7016;DHT22;3548;48.402;9.990;2022-11-20T04:39:01;3.60;99.90
7016;DHT22;3548;48.402;9.990;2022-11-20T04:41:28;3.60;99.90
7016;DHT22;3548;48.402;9.990;2022-11-20T04:43:57;3.60;99.90
7016;DHT22;3548;48.402;9.990;2022-11-20T04:46:25;3.60;99.90
7016;DHT22;3548;48.402;9.990;2022-11-20T04:48:51;3.60;99.90
7016;DHT22;3548;48.402;9.990;2022-11-20T04:51:16;3.60;99.90
7016;DHT22;3548;48.402;9.990;2022-11-20T04:53:42;3.60;99.90
7016;DHT22;3548;48.402;9.990;2022-11-20T04:56:10;3.60;99.90
7016;DHT22;3548;48.402;9.990;2022-11-20T04:58:36;3.60;99.90
7016;DHT22;3548;48.402;9.990;2022-11-20T05:01:02;3.50;99.90
7016;DHT22;3548;48.402;9.990;2022-11-20T05:03:28;3.50;99.90
7016;DHT22;3548;48.402;9.990;2022-11-20T05:05:54;3.50;99.90
7016;DHT22;3548;48.402;9.990;2022-11-20T05:08:19;3.50;99.90
7016;DHT22;3548;48.402;9.990;2022-11-20T05:10:45;3.50;99.90
7016;DHT22;3548;48.402;9.990;2022-11-20T05:13:10;3.60;99.90
7016;DHT22;3548;48.402;9.990;2022-11-20T05:15:36;3.60;99.90
7016;DHT22;3548;48.402;9.990;2022-11-20T05:18:01;3.60;99.90
7016;DHT22;3548;48.402;9.990;2022-11-20T05:20:27;3.60;99.90
7016;DHT22;3548;48.402;9.990;2022-11-20T05:22:56;3.60;99.90
7016;DHT22;3548;48.402;9.990;2022-11-20T05:25:22;3.60;99.90
7016;DHT22;3548;48.402;9.990;2022-11-20T05:27:47;3.60;99.90
7016;DHT22;3548;48.402;9.990;2022-11-20T05:30:13;3.60;99.90
7016;DHT22;3548;48.402;9.990;2022-11-20T05:32:39;3.50;99.90
7016;DHT22;3548;48.402;9.990;2022-11-20T05:35:05;3.50;99.90
7016;DHT22;3548;48.402;9.990;2022-11-20T05:37:30;3.50;99.90
7016;DHT22;3548;48.402;9.990;2022-11-20T05:39:56;3.50;99.90
7016;DHT22;3548;48.402;9.990;2022-11-20T05:42:21;3.50;99.90
7016;DHT22;3548;48.402;9.990;2022-11-20T05:45:00;3.50;99.90
7016;DHT22;3548;48.402;9.990;2022-11-20T05:47:27;3.60;99.90
7016;DHT22;3548;48.402;9.990;2022-11-20T05:49:53;3.60;99.90
7016;DHT22;3548;48.402;9.990;2022-11-20T05:52:19;3.60;99.90
7016;DHT22;3548;48.402;9.990;2022-11-20T05:54:44;3.60;99.90
7016;DHT22;3548;48.402;9.990;2022-11-20T05:57:10;3.70;99.90
7016;DHT22;3548;48.402;9.990;2022-11-20T05:59:35;3.70;99.90
7016;DHT22;3548;48.402;9.990;2022-11-20T06:02:01;3.70;99.90
7016;DHT22;3548;48.402;9.990;2022-11-20T06:04:26;3.70;99.90
7016;DHT22;3548;48.402;9.990;2022-11-20T06:06:52;3.70;99.90
7016;DHT22;3548;48.402;9.990;2022-11-20T06:09:17;3.70;99.90
7016;DHT22;3548;48.402;9.990;2022-11-20T06:11:43;3.80;99.90
7016;DHT22;3548;48.402;9.990;2022-11-20T06:14:08;3.80;99.90
7016;DHT22;3548;48.402;9.990;2022-11-20T06:16:34;3.80;99.90
7016;DHT22;3548;48.402;9.990;2022-11-20T06:18:59;3.80;99.90
7016;DHT22;3548;48.402;9.990;2022-11-20T06:21:25;3.80;99.90
7016;DHT22;3548;48.402;9.990;2022-11-20T06:23:52;3.90;99.90
7016;DHT22;3548;48.402;9.990;2022-11-20T06:26:24;3.90;99.90
7016;DHT22;3548;48.402;9.990;2022-11-20T06:28:50;3.90;99.90
7016;DHT22;3548;48.402;9.990;2022-11-20T06:31:18;4.00;99.90
7016;DHT22;3548;48.402;9.990;2022-11-20T06:33:44;4.00;99.90
7016;DHT22;3548;48.402;9.990;2022-11-20T06:36:11;4.00;99.90
7016;DHT22;3548;48.402;9.990;2022-11-20T06:38:39;4.00;99.90
7016;DHT22;3548;48.402;9.990;2022-11-20T06:41:06;4.10;99.90
7016;DHT22;3548;48.402;9.990;2022-11-20T06:43:32;4.10;99.90
7016;DHT22;3548;48.402;9.990;2022-11-20T06:45:58;4.10;99.90
7016;DHT22;3548;48.402;9.990;2022-11-20T06:48:26;4.20;99.90
7016;DHT22;3548;48.402;9.990;2022-11-20T06:50:52;4.20;99.90
7016;DHT22;3548;48.402;9.990;2022-11-20T06:53:18;4.20;99.90
7016;DHT22;3548;48.402;9.990;2022-11-20T06:55:44;4.20;99.90
7016;DHT22;3548;48.402;9.990;2022-11-20T06:58:11;4.30;99.90
7016;DHT22;3548;48.402;9.990;2022-11-20T07:00:37;4.20;99.90
7016;DHT22;3548;48.402;9.990;2022-11-20T07:03:04;4.20;99.90
7016;DHT22;3548;48.402;9.990;2022-11-20T07:05:29;4.30;99.90
7016;DHT22;3548;48.402;9.990;2022-11-20T07:07:58;4.30;99.90
7016;DHT22;3548;48.402;9.990;2022-11-20T07:10:24;4.40;99.90
7016;DHT22;3548;48.402;9.990;2022-11-20T07:12:51;4.40;99.90
7016;DHT22;3548;48.402;9.990;2022-11-20T07:15:18;4.40;99.90
7016;DHT22;3548;48.402;9.990;2022-11-20T07:17:44;4.40;99.90
7016;DHT22;3548;48.402;9.990;2022-11-20T07:20:10;4.40;99.90
7016;DHT22;3548;48.402;9.990;2022-11-20T07:22:36;4.40;99.90
7016;DHT22;3548;48.402;9.990;2022-11-20T07:25:01;4.40;99.90
7016;DHT22;3548;48.402;9.990;2022-11-20T07:27:27;4.30;99.90
7016;DHT22;3548;48.402;9.990;2022-11-20T07:29:53;4.40;99.90
7016;DHT22;3548;48.402;9.990;2022-11-20T07:32:19;4.40;99.90
7016;DHT22;3548;48.402;9.990;2022-11-20T07:34:44;4.40;99.90
7016;DHT22;3548;48.402;9.990;2022-11-20T07:37:10;4.40;99.90
7016;DHT22;3548;48.402;9.990;2022-11-20T07:39:35;4.50;99.90
7016;DHT22;3548;48.402;9.990;2022-11-20T07:42:01;4.50;99.90
7016;DHT22;3548;48.402;9.990;2022-11-20T07:44:26;4.50;99.90
7016;DHT22;3548;48.402;9.990;2022-11-20T07:46:52;4.50;99.90
7016;DHT22;3548;48.402;9.990;2022-11-20T07:49:17;4.50;99.90
7016;DHT22;3548;48.402;9.990;2022-11-20T07:51:43;4.50;99.90
7016;DHT22;3548;48.402;9.990;2022-11-20T07:54:08;4.60;99.90
7016;DHT22;3548;48.402;9.990;2022-11-20T07:56:34;4.60;99.90
7016;DHT22;3548;48.402;9.990;2022-11-20T07:58:59;4.60;99.90
7016;DHT22;3548;48.402;9.990;2022-11-20T08:01:25;4.60;99.90
7016;DHT22;3548;48.402;9.990;2022-11-20T08:03:51;4.60;99.90
7016;DHT22;3548;48.402;9.990;2022-11-20T08:06:16;4.60;99.90
7016;DHT22;3548;48.402;9.990;2022-11-20T08:08:43;4.60;99.90
7016;DHT22;3548;48.402;9.990;2022-11-20T08:11:09;4.70;99.90
7016;DHT22;3548;48.402;9.990;2022-11-20T08:13:54;4.70;99.90
7016;DHT22;3548;48.402;9.990;2022-11-20T08:16:42;4.70;99.90
7016;DHT22;3548;48.402;9.990;2022-11-20T08:19:08;4.80;99.90
7016;DHT22;3548;48.402;9.990;2022-11-20T08:21:34;4.80;99.90
7016;DHT22;3548;48.402;9.990;2022-11-20T08:23:59;4.80;99.90
7016;DHT22;3548;48.402;9.990;2022-11-20T08:26:25;4.80;99.90
7016;DHT22;3548;48.402;9.990;2022-11-20T08:28:57;4.80;99.90
7016;DHT22;3548;48.402;9.990;2022-11-20T08:31:25;4.90;99.90
7016;DHT22;3548;48.402;9.990;2022-11-20T08:33:51;4.90;99.90
7016;DHT22;3548;48.402;9.990;2022-11-20T08:36:17;4.90;99.90
7016;DHT22;3548;48.402;9.990;2022-11-20T08:38:47;5.00;99.90
7016;DHT22;3548;48.402;9.990;2022-11-20T08:41:13;5.00;99.90
7016;DHT22;3548;48.402;9.990;2022-11-20T08:43:58;5.00;99.90
7016;DHT22;3548;48.402;9.990;2022-11-20T08:46:31;5.10;99.90
7016;DHT22;3548;48.402;9.990;2022-11-20T08:48:58;5.10;99.90
7016;DHT22;3548;48.402;9.990;2022-11-20T08:51:24;5.10;99.90
7016;DHT22;3548;48.402;9.990;2022-11-20T08:53:49;5.10;99.90
7016;DHT22;3548;48.402;9.990;2022-11-20T08:56:15;5.10;99.90
7016;DHT22;3548;48.402;9.990;2022-11-20T08:58:41;5.20;99.90
7016;DHT22;3548;48.402;9.990;2022-11-20T09:01:07;5.20;99.90
7016;DHT22;3548;48.402;9.990;2022-11-20T09:03:32;5.20;99.90
7016;DHT22;3548;48.402;9.990;2022-11-20T09:05:59;5.30;99.90
7016;DHT22;3548;48.402;9.990;2022-11-20T09:08:25;5.20;99.90
7016;DHT22;3548;48.402;9.990;2022-11-20T09:10:55;5.30;99.90
7016;DHT22;3548;48.402;9.990;2022-11-20T09:13:22;5.30;99.90
7016;DHT22;3548;48.402;9.990;2022-11-20T09:15:56;5.30;99.90
7016;DHT22;3548;48.402;9.990;2022-11-20T09:18:23;5.40;99.90
7016;DHT22;3548;48.402;9.990;2022-11-20T09:20:49;5.40;99.90
7016;DHT22;3548;48.402;9.990;2022-11-20T09:23:15;5.50;99.90
7016;DHT22;3548;48.402;9.990;2022-11-20T09:25:41;5.50;99.90
7016;DHT22;3548;48.402;9.990;2022-11-20T09:28:07;5.50;99.90
7016;DHT22;3548;48.402;9.990;2022-11-20T09:30:32;5.50;99.90
7016;DHT22;3548;48.402;9.990;2022-11-20T09:32:58;5.50;99.90
7016;DHT22;3548;48.402;9.990;2022-11-20T09:35:23;5.50;99.90
7016;DHT22;3548;48.402;9.990;2022-11-20T09:37:49;5.60;99.90
7016;DHT22;3548;48.402;9.990;2022-11-20T09:40:26;5.50;99.90
7016;DHT22;3548;48.402;9.990;2022-11-20T09:43:16;5.50;99.90
7016;DHT22;3548;48.402;9.990;2022-11-20T09:45:55;5.50;99.90
7016;DHT22;3548;48.402;9.990;2022-11-20T09:48:34;5.60;99.90
7016;DHT22;3548;48.402;9.990;2022-11-20T09:51:42;5.60;99.90
7016;DHT22;3548;48.402;9.990;2022-11-20T09:54:22;5.60;99.90
7016;DHT22;3548;48.402;9.990;2022-11-20T09:56:57;5.60;99.90
7016;DHT22;3548;48.402;9.990;2022-11-20T09:59:39;5.70;99.90
7016;DHT22;3548;48.402;9.990;2022-11-20T10:05:03;5.80;99.90
7016;DHT22;3548;48.402;9.990;2022-11-20T10:07:48;5.80;99.90
7016;DHT22;3548;48.402;9.990;2022-11-20T10:10:21;5.90;99.90
7016;DHT22;3548;48.402;9.990;2022-11-20T10:16:01;6.00;99.90
7016;DHT22;3548;48.402;9.990;2022-11-20T10:18:41;6.00;99.90
7016;DHT22;3548;48.402;9.990;2022-11-20T10:30:12;6.30;99.90
7016;DHT22;3548;48.402;9.990;2022-11-20T10:32:43;6.30;99.90
7016;DHT22;3548;48.402;9.990;2022-11-20T10:37:59;6.40;99.90
7016;DHT22;3548;48.402;9.990;2022-11-20T10:40:35;6.40;99.90
7016;DHT22;3548;48.402;9.990;2022-11-20T10:43:15;6.40;99.90
7016;DHT22;3548;48.402;9.990;2022-11-20T10:45:56;6.50;99.90
7016;DHT22;3548;48.402;9.990;2022-11-20T10:48:26;6.50;99.90
7016;DHT22;3548;48.402;9.990;2022-11-20T10:51:21;6.50;99.90
7016;DHT22;3548;48.402;9.990;2022-11-20T10:56:47;6.50;99.90
7016;DHT22;3548;48.402;9.990;2022-11-20T10:59:24;6.50;99.90
7016;DHT22;3548;48.402;9.990;2022-11-20T11:01:52;6.50;99.90
7016;DHT22;3548;48.402;9.990;2022-11-20T11:04:36;6.50;99.90
7016;DHT22;3548;48.402;9.990;2022-11-20T11:07:21;6.40;99.90
7016;DHT22;3548;48.402;9.990;2022-11-20T11:09:50;6.40;99.90
7016;DHT22;3548;48.402;9.990;2022-11-20T11:12:16;6.50;99.90
7016;DHT22;3548;48.402;9.990;2022-11-20T11:14:53;6.50;99.90
7016;DHT22;3548;48.402;9.990;2022-11-20T11:17:33;6.60;99.90
7016;DHT22;3548;48.402;9.990;2022-11-20T11:20:22;6.70;99.90
7016;DHT22;3548;48.402;9.990;2022-11-20T11:22:56;6.70;99.90
7016;DHT22;3548;48.402;9.990;2022-11-20T11:27:55;6.60;99.90
7016;DHT22;3548;48.402;9.990;2022-11-20T11:30:22;6.50;99.90
7016;DHT22;3548;48.402;9.990;2022-11-20T11:32:48;6.50;99.90
7016;DHT22;3548;48.402;9.990;2022-11-20T11:35:25;6.50;99.90
7016;DHT22;3548;48.402;9.990;2022-11-20T11:38:01;6.50;99.90
7016;DHT22;3548;48.402;9.990;2022-11-20T11:40:29;6.50;99.90
7016;DHT22;3548;48.402;9.990;2022-11-20T11:43:02;6.50;99.90
7016;DHT22;3548;48.402;9.990;2022-11-20T11:45:29;6.50;99.90
7016;DHT22;3548;48.402;9.990;2022-11-20T11:47:58;6.60;99.90
7016;DHT22;3548;48.402;9.990;2022-11-20T11:50:27;6.70;99.90
7016;DHT22;3548;48.402;9.990;2022-11-20T11:53:09;6.70;99.90
7016;DHT22;3548;48.402;9.990;2022-11-20T11:55:39;6.70;99.90
7016;DHT22;3548;48.402;9.990;2022-11-20T11:58:14;6.70;99.90
7016;DHT22;3548;48.402;9.990;2022-11-20T12:00:54;6.70;99.90
7016;DHT22;3548;48.402;9.990;2022-11-20T12:03:52;6.80;99.90
7016;DHT22;3548;48.402;9.990;2022-11-20T12:06:20;6.70;99.90
7016;DHT22;3548;48.402;9.990;2022-11-20T12:08:56;6.80;99.90
7016;DHT22;3548;48.402;9.990;2022-11-20T12:16:55;7.00;99.90
7016;DHT22;3548;48.402;9.990;2022-11-20T12:19:23;7.00;99.90
7016;DHT22;3548;48.402;9.990;2022-11-20T12:25:02;7.10;99.90
7016;DHT22;3548;48.402;9.990;2022-11-20T12:30:18;7.10;99.90
7016;DHT22;3548;48.402;9.990;2022-11-20T12:39:00;7.20;99.90
7016;DHT22;3548;48.402;9.990;2022-11-20T12:48:21;7.20;99.90
7016;DHT22;3548;48.402;9.990;2022-11-20T12:51:06;7.20;99.90
7016;DHT22;3548;48.402;9.990;2022-11-20T12:54:26;7.30;99.90
7016;DHT22;3548;48.402;9.990;2022-11-20T13:01:52;7.40;99.90
7016;DHT22;3548;48.402;9.990;2022-11-20T13:04:34;7.40;99.90
7016;DHT22;3548;48.402;9.990;2022-11-20T13:07:12;7.50;99.90
7016;DHT22;3548;48.402;9.990;2022-11-20T13:09:49;7.60;99.90
7016;DHT22;3548;48.402;9.990;2022-11-20T13:12:25;7.60;99.90
7016;DHT22;3548;48.402;9.990;2022-11-20T13:16:06;7.60;99.90
7016;DHT22;3548;48.402;9.990;2022-11-20T13:18:01;7.70;99.90
7016;DHT22;3548;48.402;9.990;2022-11-20T13:20:29;7.70;99.90
7016;DHT22;3548;48.402;9.990;2022-11-20T13:22:55;7.80;99.90
7016;DHT22;3548;48.402;9.990;2022-11-20T13:27:56;7.90;99.90
7016;DHT22;3548;48.402;9.990;2022-11-20T13:30:23;7.90;99.90
7016;DHT22;3548;48.402;9.990;2022-11-20T13:32:51;7.90;99.90
7016;DHT22;3548;48.402;9.990;2022-11-20T13:38:04;7.90;99.90
7016;DHT22;3548;48.402;9.990;2022-11-20T13:40:30;8.00;99.90
7016;DHT22;3548;48.402;9.990;2022-11-20T13:46:03;8.00;99.90
7016;DHT22;3548;48.402;9.990;2022-11-20T13:48:47;7.90;99.90
7016;DHT22;3548;48.402;9.990;2022-11-20T13:51:35;7.90;99.90
7016;DHT22;3548;48.402;9.990;2022-11-20T13:59:43;7.80;99.90
7016;DHT22;3548;48.402;9.990;2022-11-20T14:02:16;7.80;99.90
7016;DHT22;3548;48.402;9.990;2022-11-20T14:04:48;7.80;99.90
7016;DHT22;3548;48.402;9.990;2022-11-20T14:07:16;7.80;99.90
7016;DHT22;3548;48.402;9.990;2022-11-20T14:09:54;7.80;99.90
7016;DHT22;3548;48.402;9.990;2022-11-20T14:12:22;7.80;99.90
7016;DHT22;3548;48.402;9.990;2022-11-20T14:14:50;7.80;99.90
7016;DHT22;3548;48.402;9.990;2022-11-20T14:19:58;7.90;99.90
7016;DHT22;3548;48.402;9.990;2022-11-20T14:22:26;7.90;99.90
7016;DHT22;3548;48.402;9.990;2022-11-20T14:28:21;8.00;99.90
7016;DHT22;3548;48.402;9.990;2022-11-20T14:30:48;7.90;99.90
7016;DHT22;3548;48.402;9.990;2022-11-20T14:33:14;7.90;99.90
7016;DHT22;3548;48.402;9.990;2022-11-20T14:35:48;7.90;99.90
7016;DHT22;3548;48.402;9.990;2022-11-20T14:38:18;7.90;99.90
7016;DHT22;3548;48.402;9.990;2022-11-20T14:40:45;7.80;99.90
7016;DHT22;3548;48.402;9.990;2022-11-20T14:45:54;7.80;99.90
7016;DHT22;3548;48.402;9.990;2022-11-20T14:48:24;7.80;99.90
7016;DHT22;3548;48.402;9.990;2022-11-20T14:50:51;7.70;99.90
7016;DHT22;3548;48.402;9.990;2022-11-20T14:53:23;7.70;99.90
7016;DHT22;3548;48.402;9.990;2022-11-20T14:55:58;7.70;99.90
7016;DHT22;3548;48.402;9.990;2022-11-20T14:58:27;7.70;99.90
7016;DHT22;3548;48.402;9.990;2022-11-20T15:00:58;7.70;99.90
7016;DHT22;3548;48.402;9.990;2022-11-20T15:03:39;7.70;99.90
7016;DHT22;3548;48.402;9.990;2022-11-20T15:06:06;7.70;99.90
7016;DHT22;3548;48.402;9.990;2022-11-20T15:08:32;7.60;99.90
7016;DHT22;3548;48.402;9.990;2022-11-20T15:10:58;7.50;99.90
7016;DHT22;3548;48.402;9.990;2022-11-20T15:13:34;7.50;99.90
7016;DHT22;3548;48.402;9.990;2022-11-20T15:16:03;7.40;99.90
7016;DHT22;3548;48.402;9.990;2022-11-20T15:18:39;7.30;99.90
7016;DHT22;3548;48.402;9.990;2022-11-20T15:21:14;7.50;99.90
7016;DHT22;3548;48.402;9.990;2022-11-20T15:23:41;7.20;99.90
7016;DHT22;3548;48.402;9.990;2022-11-20T15:26:08;7.20;99.90
7016;DHT22;3548;48.402;9.990;2022-11-20T15:28:36;7.20;99.90
7016;DHT22;3548;48.402;9.990;2022-11-20T15:31:03;7.10;99.90
7016;DHT22;3548;48.402;9.990;2022-11-20T15:33:30;7.00;99.90
7016;DHT22;3548;48.402;9.990;2022-11-20T15:35:56;6.90;99.90
7016;DHT22;3548;48.402;9.990;2022-11-20T15:38:22;6.80;99.90
7016;DHT22;3548;48.402;9.990;2022-11-20T15:40:47;6.70;99.90
7016;DHT22;3548;48.402;9.990;2022-11-20T15:43:14;6.60;99.90
7016;DHT22;3548;48.402;9.990;2022-11-20T15:48:39;6.50;99.90
7016;DHT22;3548;48.402;9.990;2022-11-20T15:51:34;6.40;99.90
7016;DHT22;3548;48.402;9.990;2022-11-20T15:53:59;6.30;99.90
7016;DHT22;3548;48.402;9.990;2022-11-20T15:56:25;6.30;99.90
7016;DHT22;3548;48.402;9.990;2022-11-20T15:58:51;6.20;99.90
7016;DHT22;3548;48.402;9.990;2022-11-20T16:01:19;6.20;99.90
7016;DHT22;3548;48.402;9.990;2022-11-20T16:03:45;6.10;99.90
7016;DHT22;3548;48.402;9.990;2022-11-20T16:06:11;6.10;99.90
7016;DHT22;3548;48.402;9.990;2022-11-20T16:08:37;6.00;99.90
7016;DHT22;3548;48.402;9.990;2022-11-20T16:11:03;6.00;99.90
7016;DHT22;3548;48.402;9.990;2022-11-20T16:13:31;6.00;99.90
7016;DHT22;3548;48.402;9.990;2022-11-20T16:16:33;6.00;99.90
7016;DHT22;3548;48.402;9.990;2022-11-20T16:19:00;5.90;99.90
7016;DHT22;3548;48.402;9.990;2022-11-20T16:21:26;5.90;99.90
7016;DHT22;3548;48.402;9.990;2022-11-20T16:24:05;5.80;99.90
7016;DHT22;3548;48.402;9.990;2022-11-20T16:26:32;5.90;99.90
7016;DHT22;3548;48.402;9.990;2022-11-20T16:28:59;5.80;99.90
7016;DHT22;3548;48.402;9.990;2022-11-20T16:31:25;5.80;99.90
7016;DHT22;3548;48.402;9.990;2022-11-20T16:33:55;5.90;99.90
7016;DHT22;3548;48.402;9.990;2022-11-20T16:36:23;5.90;99.90
7016;DHT22;3548;48.402;9.990;2022-11-20T16:38:53;5.80;99.90
7016;DHT22;3548;48.402;9.990;2022-11-20T16:41:19;5.80;99.90
7016;DHT22;3548;48.402;9.990;2022-11-20T16:43:47;5.80;99.90
7016;DHT22;3548;48.402;9.990;2022-11-20T16:46:14;5.80;99.90
7016;DHT22;3548;48.402;9.990;2022-11-20T16:48:39;5.80;99.90
7016;DHT22;3548;48.402;9.990;2022-11-20T16:51:08;5.80;99.90
7016;DHT22;3548;48.402;9.990;2022-11-20T16:53:34;5.70;99.90
7016;DHT22;3548;48.402;9.990;2022-11-20T16:56:14;5.70;99.90
7016;DHT22;3548;48.402;9.990;2022-11-20T16:58:42;5.70;99.90
7016;DHT22;3548;48.402;9.990;2022-11-20T17:01:09;5.70;99.90
7016;DHT22;3548;48.402;9.990;2022-11-20T17:03:39;5.70;99.90
7016;DHT22;3548;48.402;9.990;2022-11-20T17:06:16;5.60;99.90
7016;DHT22;3548;48.402;9.990;2022-11-20T17:08:42;5.60;99.90
7016;DHT22;3548;48.402;9.990;2022-11-20T17:11:09;5.50;99.90
7016;DHT22;3548;48.402;9.990;2022-11-20T17:13:35;5.50;99.90
7016;DHT22;3548;48.402;9.990;2022-11-20T17:16:02;5.50;99.90
7016;DHT22;3548;48.402;9.990;2022-11-20T17:18:28;5.50;99.90
7016;DHT22;3548;48.402;9.990;2022-11-20T17:20:54;5.50;99.90
7016;DHT22;3548;48.402;9.990;2022-11-20T17:23:20;5.60;99.90
7016;DHT22;3548;48.402;9.990;2022-11-20T17:25:45;5.60;99.90
7016;DHT22;3548;48.402;9.990;2022-11-20T17:28:11;5.60;99.90
7016;DHT22;3548;48.402;9.990;2022-11-20T17:30:36;5.60;99.90
7016;DHT22;3548;48.402;9.990;2022-11-20T17:33:02;5.60;99.90
7016;DHT22;3548;48.402;9.990;2022-11-20T17:35:27;5.50;99.90
7016;DHT22;3548;48.402;9.990;2022-11-20T17:37:53;5.50;99.90
7016;DHT22;3548;48.402;9.990;2022-11-20T17:40:18;5.50;99.90
7016;DHT22;3548;48.402;9.990;2022-11-20T17:42:44;5.50;99.90
7016;DHT22;3548;48.402;9.990;2022-11-20T17:45:09;5.60;99.90
7016;DHT22;3548;48.402;9.990;2022-11-20T17:47:35;5.60;99.90
7016;DHT22;3548;48.402;9.990;2022-11-20T17:50:02;5.60;99.90
7016;DHT22;3548;48.402;9.990;2022-11-20T17:52:27;5.60;99.90